createdAt,value
2023-10-17T00:00:30.246Z,7.30
2023-10-17T00:03:01.027Z,7.30
2023-10-17T00:05:31.193Z,7.20
2023-10-17T00:08:00.731Z,7.10
2023-10-17T00:10:32.568Z,7.00
2023-10-17T00:13:20.036Z,6.80
2023-10-17T00:15:50.286Z,6.70
2023-10-17T00:18:20.653Z,6.60
2023-10-17T00:20:52.757Z,6.40
2023-10-17T00:23:23.694Z,6.30
2023-10-17T00:25:53.509Z,6.10
2023-10-17T00:28:23.537Z,6.00
2023-10-17T00:33:25.325Z,5.90
2023-10-17T00:35:55.952Z,5.90
2023-10-17T00:38:24.828Z,5.80
2023-10-17T00:40:53.559Z,5.70
2023-10-17T00:43:24.431Z,5.80
2023-10-17T00:45:54.617Z,5.70
2023-10-17T00:48:24.702Z,5.70
2023-10-17T00:50:58.841Z,5.60
2023-10-17T00:53:29.177Z,5.60
2023-10-17T00:55:57.974Z,5.70
2023-10-17T00:58:26.670Z,5.70
2023-10-17T01:01:00.324Z,5.60
2023-10-17T01:03:31.045Z,5.50
2023-10-17T01:06:11.978Z,5.60
2023-10-17T01:08:41.125Z,5.70
2023-10-17T01:11:17.317Z,5.90
2023-10-17T01:13:46.204Z,6.10
2023-10-17T01:16:18.083Z,6.30
2023-10-17T01:18:46.981Z,6.60
2023-10-17T01:33:57.166Z,6.50
2023-10-17T01:36:26.147Z,6.40
2023-10-17T01:38:56.300Z,6.30
2023-10-17T01:46:32.115Z,5.80
2023-10-17T01:49:01.718Z,5.60
2023-10-17T01:54:00.082Z,5.30
2023-10-17T01:56:30.707Z,5.20
2023-10-17T01:59:01.240Z,5.00
2023-10-17T02:01:33.147Z,4.90
2023-10-17T02:04:05.023Z,4.80
2023-10-17T02:06:34.535Z,4.70
2023-10-17T02:09:19.775Z,4.70
2023-10-17T02:11:52.259Z,4.60
2023-10-17T02:14:21.820Z,4.50
2023-10-17T02:16:51.265Z,4.50
2023-10-17T02:19:21.427Z,4.40
2023-10-17T02:21:52.212Z,4.50
2023-10-17T02:24:22.192Z,4.50
2023-10-17T02:26:57.889Z,4.50
2023-10-17T02:29:27.993Z,4.50
2023-10-17T02:31:59.970Z,4.40
2023-10-17T02:34:31.512Z,4.50
2023-10-17T02:37:02.000Z,4.30
2023-10-17T02:39:30.807Z,4.30
2023-10-17T02:42:08.479Z,4.30
2023-10-17T02:44:41.471Z,4.20
2023-10-17T02:47:14.143Z,4.20
2023-10-17T02:49:45.224Z,4.20
2023-10-17T02:52:18.485Z,4.20
2023-10-17T02:55:01.558Z,4.10
2023-10-17T02:57:35.009Z,4.10
2023-10-17T03:00:21.644Z,4.10
2023-10-17T03:02:53.666Z,4.10
2023-10-17T03:05:23.206Z,4.10
2023-10-17T03:07:52.261Z,4.10
2023-10-17T03:10:38.499Z,4.10
2023-10-17T03:13:19.515Z,4.20
2023-10-17T03:15:49.308Z,4.20
2023-10-17T03:18:17.220Z,4.20
2023-10-17T03:20:52.085Z,4.20
2023-10-17T03:23:21.343Z,4.20
2023-10-17T03:25:49.912Z,4.20
2023-10-17T03:28:23.792Z,4.20
2023-10-17T03:30:54.537Z,4.20
2023-10-17T03:33:28.596Z,4.20
2023-10-17T03:36:06.791Z,4.10
2023-10-17T03:38:38.590Z,4.10
2023-10-17T03:41:16.952Z,4.00
2023-10-17T03:43:53.271Z,4.00
2023-10-17T03:46:27.474Z,4.00
2023-10-17T03:48:59.610Z,3.90
2023-10-17T03:51:28.559Z,3.90
2023-10-17T03:54:08.202Z,3.90
2023-10-17T03:56:47.091Z,3.90
2023-10-17T03:59:31.428Z,4.00
2023-10-17T04:02:04.142Z,4.00
2023-10-17T04:04:38.326Z,4.00
2023-10-17T04:07:08.260Z,3.90
2023-10-17T04:09:47.852Z,3.80
2023-10-17T04:12:22.536Z,3.80
2023-10-17T04:14:59.591Z,3.80
2023-10-17T04:17:31.290Z,3.80
2023-10-17T04:20:12.669Z,3.80
2023-10-17T04:22:41.896Z,3.80
2023-10-17T04:25:21.408Z,3.70
2023-10-17T04:27:53.549Z,3.80
2023-10-17T04:30:30.933Z,3.70
2023-10-17T04:33:10.575Z,3.80
2023-10-17T04:35:48.177Z,3.70
2023-10-17T04:38:21.010Z,3.70
2023-10-17T04:41:12.192Z,3.70
2023-10-17T04:43:57.240Z,3.70
2023-10-17T04:46:27.313Z,3.70
2023-10-17T04:49:05.134Z,3.80
2023-10-17T04:51:33.118Z,3.70
2023-10-17T04:54:11.375Z,3.80
2023-10-17T04:56:54.440Z,3.80
2023-10-17T04:59:42.643Z,3.90
2023-10-17T05:02:37.401Z,3.90
2023-10-17T05:05:24.056Z,3.90
2023-10-17T05:08:12.480Z,3.80
2023-10-17T05:10:59.470Z,3.80
2023-10-17T05:13:45.543Z,3.80
2023-10-17T05:16:33.153Z,3.80
2023-10-17T05:19:19.290Z,3.80
2023-10-17T05:22:05.660Z,3.80
2023-10-17T05:24:51.926Z,3.90
2023-10-17T05:27:38.064Z,3.90
2023-10-17T05:30:34.206Z,3.90
2023-10-17T05:33:30.398Z,3.90
2023-10-17T05:36:16.515Z,4.00
2023-10-17T05:39:02.996Z,4.10
2023-10-17T05:41:49.053Z,4.20
2023-10-17T05:44:35.512Z,4.30
2023-10-17T05:47:21.770Z,4.40
2023-10-17T05:50:09.488Z,4.50
2023-10-17T05:53:06.894Z,4.60
2023-10-17T05:55:53.237Z,4.70
2023-10-17T05:58:39.022Z,4.90
2023-10-17T06:01:36.645Z,4.80
2023-10-17T06:04:23.102Z,4.90
2023-10-17T06:07:11.237Z,4.90
2023-10-17T06:09:57.345Z,5.00
2023-10-17T06:12:42.910Z,5.00
2023-10-17T06:15:29.223Z,5.00
2023-10-17T06:17:57.892Z,5.10
2023-10-17T06:20:45.706Z,5.20
2023-10-17T06:23:47.575Z,5.20
2023-10-17T06:26:34.126Z,5.20
2023-10-17T06:29:16.676Z,5.30
2023-10-17T06:31:58.069Z,5.30
2023-10-17T06:34:26.192Z,5.30
2023-10-17T06:37:00.798Z,5.40
2023-10-17T06:39:39.086Z,5.40
2023-10-17T06:42:16.223Z,5.50
2023-10-17T06:44:55.498Z,5.60
2023-10-17T06:47:32.485Z,5.70
2023-10-17T06:50:35.438Z,5.80
2023-10-17T06:53:03.958Z,5.90
2023-10-17T06:55:44.598Z,6.10
2023-10-17T06:58:16.185Z,6.20
2023-10-17T07:00:51.722Z,6.20
2023-10-17T07:03:28.354Z,6.30
2023-10-17T07:06:12.925Z,6.40
2023-10-17T07:08:47.986Z,6.50
2023-10-17T07:11:27.839Z,6.60
2023-10-17T07:14:12.588Z,6.60
2023-10-17T07:16:47.442Z,6.70
2023-10-17T07:19:33.978Z,6.70
2023-10-17T07:22:09.940Z,6.80
2023-10-17T07:24:44.293Z,6.80
2023-10-17T07:27:20.408Z,6.80
2023-10-17T07:29:59.832Z,6.90
2023-10-17T07:32:34.759Z,6.90
2023-10-17T07:35:06.481Z,6.90
2023-10-17T07:37:49.486Z,7.00
2023-10-17T07:40:23.810Z,7.00
2023-10-17T07:42:57.139Z,7.00
2023-10-17T07:45:25.901Z,7.10
2023-10-17T07:47:57.381Z,7.10
2023-10-17T07:50:27.094Z,7.20
2023-10-17T07:53:00.738Z,7.20
2023-10-17T07:55:38.541Z,7.30
2023-10-17T07:58:19.045Z,7.30
2023-10-17T08:00:50.179Z,7.30
2023-10-17T08:03:20.639Z,7.30
2023-10-17T08:06:06.318Z,7.30
2023-10-17T08:08:36.289Z,7.40
2023-10-17T08:11:06.970Z,7.40
2023-10-17T08:13:38.605Z,7.50
2023-10-17T08:16:08.609Z,7.60
2023-10-17T08:18:43.364Z,7.60
2023-10-17T08:21:29.770Z,7.70
2023-10-17T08:24:01.991Z,7.70
2023-10-17T08:26:41.352Z,7.80
2023-10-17T08:29:11.495Z,7.90
2023-10-17T08:31:45.904Z,7.90
2023-10-17T08:34:13.834Z,8.00
2023-10-17T08:36:48.591Z,8.00
2023-10-17T08:39:28.508Z,8.10
2023-10-17T08:42:01.567Z,8.10
2023-10-17T08:44:31.177Z,8.10
2023-10-17T08:47:00.032Z,8.20
2023-10-17T08:49:36.098Z,8.20
2023-10-17T08:52:07.280Z,8.20
2023-10-17T08:54:36.713Z,8.20
2023-10-17T08:57:08.886Z,8.20
2023-10-17T09:00:01.036Z,8.20
2023-10-17T09:02:33.056Z,8.20
2023-10-17T09:05:04.691Z,8.30
2023-10-17T09:07:43.194Z,8.30
2023-10-17T09:10:20.374Z,8.40
2023-10-17T09:13:11.983Z,8.40
2023-10-17T09:15:49.605Z,8.50
2023-10-17T09:18:29.426Z,8.60
2023-10-17T09:20:59.302Z,8.60
2023-10-17T09:23:30.028Z,8.60
2023-10-17T09:26:00.725Z,8.70
2023-10-17T09:28:30.227Z,8.70
2023-10-17T09:31:04.811Z,8.80
2023-10-17T09:33:34.545Z,8.80
2023-10-17T09:36:05.558Z,8.90
2023-10-17T09:38:34.656Z,8.90
2023-10-17T09:41:17.865Z,8.80
2023-10-17T09:43:48.382Z,8.90
2023-10-17T09:46:21.284Z,8.90
2023-10-17T09:48:53.973Z,8.90
2023-10-17T09:51:27.483Z,8.90
2023-10-17T09:54:00.027Z,8.90
2023-10-17T09:56:37.146Z,9.00
2023-10-17T09:59:09.967Z,8.90
2023-10-17T10:01:41.915Z,8.90
2023-10-17T10:04:11.887Z,9.00
2023-10-17T10:06:40.745Z,9.00
2023-10-17T10:09:30.924Z,9.00
2023-10-17T10:12:03.030Z,9.10
2023-10-17T10:14:42.364Z,9.10
2023-10-17T10:17:16.178Z,9.10
2023-10-17T10:20:00.580Z,9.10
2023-10-17T10:22:51.062Z,9.10
2023-10-17T10:25:21.175Z,9.20
2023-10-17T10:27:51.701Z,9.10
2023-10-17T10:30:45.136Z,9.10
2023-10-17T10:33:16.760Z,9.10
2023-10-17T10:35:48.022Z,9.10
2023-10-17T10:38:16.730Z,9.20
2023-10-17T10:40:47.472Z,9.10
2023-10-17T10:43:21.346Z,9.20
2023-10-17T10:45:52.299Z,9.20
2023-10-17T10:48:23.681Z,9.20
2023-10-17T10:50:56.878Z,9.10
2023-10-17T10:53:29.758Z,9.10
2023-10-17T10:56:01.370Z,9.20
2023-10-17T10:58:31.846Z,9.10
2023-10-17T11:01:03.853Z,9.20
2023-10-17T11:03:34.088Z,9.20
2023-10-17T11:06:05.366Z,9.20
2023-10-17T11:08:38.263Z,9.20
2023-10-17T11:11:07.414Z,9.30
2023-10-17T11:13:37.902Z,9.40
2023-10-17T11:16:07.727Z,9.40
2023-10-17T11:18:39.536Z,9.30
2023-10-17T11:21:10.316Z,9.30
2023-10-17T11:23:41.928Z,9.30
2023-10-17T11:26:26.754Z,9.40
2023-10-17T11:28:57.218Z,9.40
2023-10-17T11:31:27.012Z,9.60
2023-10-17T11:33:58.638Z,9.60
2023-10-17T11:36:36.963Z,9.60
2023-10-17T11:39:07.283Z,9.60
2023-10-17T11:41:47.864Z,9.50
2023-10-17T11:44:17.889Z,9.60
2023-10-17T11:46:57.356Z,9.50
2023-10-17T11:49:31.996Z,9.50
2023-10-17T11:52:02.516Z,9.50
2023-10-17T11:54:35.158Z,9.50
2023-10-17T11:57:16.476Z,9.50
2023-10-17T12:00:08.107Z,9.50
2023-10-17T12:02:43.679Z,9.50
2023-10-17T12:05:21.217Z,9.50
2023-10-17T12:07:55.341Z,9.50
2023-10-17T12:10:25.780Z,9.50
2023-10-17T12:13:00.512Z,9.50
2023-10-17T12:15:29.955Z,9.60
2023-10-17T12:17:59.346Z,9.60
2023-10-17T12:20:29.726Z,9.60
2023-10-17T12:23:00.929Z,9.70
2023-10-17T12:25:34.331Z,9.70
2023-10-17T12:28:03.708Z,9.70
2023-10-17T12:30:37.723Z,9.80
2023-10-17T12:33:07.909Z,9.80
2023-10-17T12:35:38.541Z,9.80
2023-10-17T12:38:15.808Z,9.80
2023-10-17T12:40:47.599Z,9.80
2023-10-17T12:43:17.636Z,9.90
2023-10-17T12:45:46.482Z,9.90
2023-10-17T12:48:16.464Z,9.90
2023-10-17T12:50:46.961Z,9.90
2023-10-17T12:53:16.301Z,9.80
2023-10-17T12:55:44.930Z,9.80
2023-10-17T12:58:13.546Z,9.80
2023-10-17T13:00:43.625Z,9.80
2023-10-17T13:03:12.394Z,9.80
2023-10-17T13:05:41.135Z,9.80
2023-10-17T13:08:11.164Z,9.90
2023-10-17T13:10:40.258Z,9.80
2023-10-17T13:13:08.868Z,9.80
2023-10-17T13:15:37.607Z,9.90
2023-10-17T13:18:08.534Z,9.90
2023-10-17T13:21:01.562Z,9.90
2023-10-17T13:23:27.230Z,9.90
2023-10-17T13:25:56.037Z,9.90
2023-10-17T13:28:24.694Z,9.90
2023-10-17T13:30:53.411Z,9.90
2023-10-17T13:33:22.644Z,9.90
2023-10-17T13:35:51.436Z,9.90
2023-10-17T13:38:21.587Z,9.90
2023-10-17T13:40:51.649Z,9.90
2023-10-17T13:43:20.422Z,9.90
2023-10-17T13:45:49.091Z,9.90
2023-10-17T13:48:18.131Z,9.90
2023-10-17T13:50:46.815Z,9.90
2023-10-17T13:53:18.216Z,9.90
2023-10-17T13:55:46.953Z,9.90
2023-10-17T13:58:17.783Z,9.90
2023-10-17T14:00:47.427Z,9.90
2023-10-17T14:03:16.650Z,10.00
2023-10-17T14:05:48.759Z,9.90
2023-10-17T14:08:23.238Z,10.00
2023-10-17T14:10:52.061Z,10.00
2023-10-17T14:13:22.271Z,10.00
2023-10-17T14:15:53.485Z,9.90
2023-10-17T14:18:30.952Z,9.90
2023-10-17T14:21:18.341Z,9.90
2023-10-17T14:23:59.055Z,9.80
2023-10-17T14:26:30.371Z,9.80
2023-10-17T14:29:01.761Z,9.70
2023-10-17T14:31:32.536Z,9.70
2023-10-17T14:34:02.236Z,9.60
2023-10-17T14:36:30.748Z,9.50
2023-10-17T14:39:00.412Z,9.50
2023-10-17T14:41:28.818Z,9.40
2023-10-17T14:43:57.454Z,9.40
2023-10-17T14:46:27.503Z,9.30
2023-10-17T14:48:56.278Z,9.30
2023-10-17T14:51:26.306Z,9.20
2023-10-17T14:53:56.980Z,9.20
2023-10-17T14:56:29.137Z,9.10
2023-10-17T14:58:58.150Z,9.10
2023-10-17T15:01:28.846Z,9.10
2023-10-17T15:03:57.611Z,9.10
2023-10-17T15:06:26.339Z,9.10
2023-10-17T15:08:54.973Z,9.10
2023-10-17T15:11:25.249Z,9.10
2023-10-17T15:13:54.074Z,9.10
2023-10-17T15:16:22.829Z,9.10
2023-10-17T15:18:53.550Z,9.10
2023-10-17T15:21:23.708Z,9.00
2023-10-17T15:23:53.505Z,9.00
2023-10-17T15:26:23.786Z,9.00
2023-10-17T15:28:52.556Z,9.00
2023-10-17T15:31:21.852Z,9.00
2023-10-17T15:33:50.864Z,9.10
2023-10-17T15:36:28.351Z,9.00
2023-10-17T15:38:58.509Z,9.10
2023-10-17T15:41:27.413Z,9.10
2023-10-17T15:43:56.049Z,9.10
2023-10-17T15:46:26.134Z,9.10
2023-10-17T15:48:56.417Z,9.20
2023-10-17T15:51:28.096Z,9.20
2023-10-17T15:53:56.841Z,9.10
2023-10-17T15:56:30.024Z,9.10
2023-10-17T15:58:59.266Z,9.20
2023-10-17T16:01:27.928Z,9.20
2023-10-17T16:03:56.786Z,9.20
2023-10-17T16:06:27.233Z,9.20
2023-10-17T16:08:56.172Z,9.20
2023-10-17T16:11:24.859Z,9.30
2023-10-17T16:13:54.551Z,9.30
2023-10-17T16:16:24.739Z,9.30
2023-10-17T16:18:53.837Z,9.30
2023-10-17T16:21:22.656Z,9.30
2023-10-17T16:23:52.822Z,9.30
2023-10-17T16:26:21.357Z,9.30
2023-10-17T16:28:51.535Z,9.30
2023-10-17T16:31:21.027Z,9.30
2023-10-17T16:33:50.434Z,9.20
2023-10-17T16:36:20.123Z,9.20
2023-10-17T16:38:48.490Z,9.30
2023-10-17T16:41:18.486Z,9.20
2023-10-17T16:43:47.254Z,9.20
2023-10-17T16:46:16.223Z,9.20
2023-10-17T16:48:45.819Z,9.30
2023-10-17T16:51:18.588Z,9.30
2023-10-17T16:53:47.611Z,9.30
2023-10-17T16:56:18.562Z,9.30
2023-10-17T16:58:49.318Z,9.30
2023-10-17T17:01:19.019Z,9.30
2023-10-17T17:03:47.827Z,9.30
2023-10-17T17:06:16.741Z,9.30
2023-10-17T17:08:45.532Z,9.30
2023-10-17T17:11:14.211Z,9.30
2023-10-17T17:13:44.432Z,9.30
2023-10-17T17:16:14.846Z,9.30
2023-10-17T17:18:47.854Z,9.30
2023-10-17T17:21:18.366Z,9.30
2023-10-17T17:23:47.478Z,9.30
2023-10-17T17:26:19.561Z,9.30
2023-10-17T17:28:49.791Z,9.30
2023-10-17T17:31:19.065Z,9.30
2023-10-17T17:33:47.882Z,9.30
2023-10-17T17:36:18.492Z,9.30
2023-10-17T17:38:47.440Z,9.30
2023-10-17T17:41:16.152Z,9.20
2023-10-17T17:43:45.886Z,9.20
2023-10-17T17:46:17.181Z,9.20
2023-10-17T17:48:46.133Z,9.20
2023-10-17T17:51:17.722Z,9.20
2023-10-17T17:53:48.770Z,9.20
2023-10-17T17:56:17.883Z,9.20
2023-10-17T17:58:48.806Z,9.20
2023-10-17T18:01:19.148Z,9.20
2023-10-17T18:03:48.505Z,9.20
2023-10-17T18:06:19.161Z,9.10
2023-10-17T18:08:47.881Z,9.10
2023-10-17T18:11:16.632Z,9.00
2023-10-17T18:13:46.857Z,9.00
2023-10-17T18:16:16.515Z,8.90
2023-10-17T18:18:46.955Z,8.90
2023-10-17T18:21:17.732Z,9.00
2023-10-17T18:23:46.502Z,9.00
2023-10-17T18:26:19.877Z,9.00
2023-10-17T18:28:50.203Z,9.00
2023-10-17T18:31:19.855Z,9.00
2023-10-17T18:33:50.488Z,9.00
2023-10-17T18:36:20.191Z,9.00
2023-10-17T18:38:48.856Z,9.10
2023-10-17T18:41:17.641Z,9.10
2023-10-17T18:43:46.325Z,9.10
2023-10-17T18:46:19.096Z,9.20
2023-10-17T18:48:51.695Z,9.20
2023-10-17T18:51:21.052Z,9.20
2023-10-17T18:53:52.861Z,9.20
2023-10-17T18:56:22.372Z,9.20
2023-10-17T18:58:54.557Z,9.20
2023-10-17T19:01:23.773Z,9.20
2023-10-17T19:03:54.853Z,9.20
2023-10-17T19:06:23.887Z,9.20
2023-10-17T19:08:52.546Z,9.20
2023-10-17T19:11:21.262Z,9.20
2023-10-17T19:13:50.467Z,9.10
2023-10-17T19:16:20.251Z,9.10
2023-10-17T19:18:49.198Z,9.10
2023-10-17T19:21:19.284Z,9.20
2023-10-17T19:23:50.729Z,9.20
2023-10-17T19:26:20.760Z,9.20
2023-10-17T19:28:50.595Z,9.20
2023-10-17T19:31:21.515Z,9.20
2023-10-17T19:33:50.460Z,9.10
2023-10-17T19:36:22.976Z,9.10
2023-10-17T19:38:51.783Z,9.00
2023-10-17T19:41:20.834Z,9.00
2023-10-17T19:43:49.526Z,9.00
2023-10-17T19:46:18.197Z,8.90
2023-10-17T19:48:46.977Z,8.90
2023-10-17T19:51:15.815Z,8.80
2023-10-17T19:53:49.412Z,8.80
2023-10-17T19:56:18.127Z,8.80
2023-10-17T19:58:46.717Z,8.80
2023-10-17T20:01:16.411Z,8.70
2023-10-17T20:03:45.746Z,8.70
2023-10-17T20:06:14.512Z,8.60
2023-10-17T20:08:43.113Z,8.60
2023-10-17T20:11:13.254Z,8.60
2023-10-17T20:13:42.062Z,8.60
2023-10-17T20:16:12.433Z,8.60
2023-10-17T20:18:41.908Z,8.60
2023-10-17T20:21:11.648Z,8.60
2023-10-17T20:23:40.133Z,8.60
2023-10-17T20:26:09.737Z,8.60
2023-10-17T20:28:39.553Z,8.60
2023-10-17T20:31:24.679Z,8.50
2023-10-17T20:33:57.093Z,8.50
2023-10-17T20:36:25.887Z,8.50
2023-10-17T20:38:54.477Z,8.50
2023-10-17T20:41:24.569Z,8.50
2023-10-17T20:43:55.860Z,8.50
2023-10-17T20:46:31.480Z,8.40
2023-10-17T20:49:03.529Z,8.50
2023-10-17T20:51:32.503Z,8.40
2023-10-17T20:54:01.874Z,8.40
2023-10-17T20:56:41.446Z,8.40
2023-10-17T20:59:14.489Z,8.40
2023-10-17T21:01:43.396Z,8.40
2023-10-17T21:04:13.052Z,8.40
2023-10-17T21:06:41.913Z,8.40
2023-10-17T21:09:10.735Z,8.40
2023-10-17T21:11:40.420Z,8.40
2023-10-17T21:14:11.285Z,8.40
2023-10-17T21:16:41.831Z,8.40
2023-10-17T21:19:11.551Z,8.30
2023-10-17T21:21:40.462Z,8.30
2023-10-17T21:24:11.054Z,8.30
2023-10-17T21:26:41.413Z,8.30
2023-10-17T21:29:12.040Z,8.30
2023-10-17T21:31:42.711Z,8.30
2023-10-17T21:34:12.961Z,8.30
2023-10-17T21:36:41.726Z,8.30
2023-10-17T21:39:16.952Z,8.30
2023-10-17T21:41:46.574Z,8.30
2023-10-17T21:44:15.369Z,8.30
2023-10-17T21:46:46.111Z,8.30
2023-10-17T21:49:14.864Z,8.40
2023-10-17T21:51:43.525Z,8.40
2023-10-17T21:54:12.176Z,8.40
2023-10-17T21:56:40.894Z,8.40
2023-10-17T21:59:09.609Z,8.40
2023-10-17T22:01:38.402Z,8.40
2023-10-17T22:04:10.192Z,8.40
2023-10-17T22:06:39.630Z,8.40
2023-10-17T22:09:08.283Z,8.40
2023-10-17T22:11:36.943Z,8.40
2023-10-17T22:14:07.825Z,8.40
2023-10-17T22:16:37.252Z,8.40
2023-10-17T22:19:07.460Z,8.40
2023-10-17T22:21:36.401Z,8.40
2023-10-17T22:24:06.479Z,8.40
2023-10-17T22:26:35.364Z,8.40
2023-10-17T22:29:04.025Z,8.50
2023-10-17T22:31:33.141Z,8.50
2023-10-17T22:34:01.964Z,8.40
2023-10-17T22:36:32.108Z,8.40
2023-10-17T22:39:00.873Z,8.40
2023-10-17T22:41:29.789Z,8.50
2023-10-17T22:43:59.737Z,8.50
2023-10-17T22:46:28.648Z,8.50
2023-10-17T22:48:57.797Z,8.50
2023-10-17T22:51:27.164Z,8.40
2023-10-17T22:53:58.302Z,8.40
2023-10-17T22:56:27.121Z,8.40
2023-10-17T22:58:55.751Z,8.40
2023-10-17T23:01:24.847Z,8.40
2023-10-17T23:03:53.670Z,8.40
2023-10-17T23:06:22.620Z,8.40
2023-10-17T23:08:51.254Z,8.30
2023-10-17T23:11:22.346Z,8.40
2023-10-17T23:13:51.070Z,8.30
2023-10-17T23:16:19.607Z,8.40
2023-10-17T23:18:48.398Z,8.30
2023-10-17T23:21:17.258Z,8.30
2023-10-17T23:23:46.100Z,8.30
2023-10-17T23:26:14.905Z,8.30
2023-10-17T23:28:46.484Z,8.30
2023-10-17T23:31:16.170Z,8.30
2023-10-17T23:33:44.998Z,8.30
2023-10-17T23:36:14.370Z,8.30
2023-10-17T23:38:43.430Z,8.30
2023-10-17T23:41:12.211Z,8.20
2023-10-17T23:43:40.769Z,8.30
2023-10-17T23:46:14.223Z,8.30
2023-10-17T23:48:43.072Z,8.30
2023-10-17T23:51:12.690Z,8.30
2023-10-17T23:53:41.720Z,8.30
2023-10-17T23:56:10.949Z,8.30
2023-10-17T23:58:40.880Z,8.20
